sensor_id;sensor_type;location;lat;lon;timestamp;pressure;altitude;pressure_sealevel;temperature;humidity
31183;BME280;17813;0.000;0.000;2023-04-07T00:00:03;99598.00;;;0.80;70.09
31183;BME280;17813;0.000;0.000;2023-04-07T00:02:31;99601.34;;;0.86;69.39
31183;BME280;17813;0.000;0.000;2023-04-07T00:04:58;99595.16;;;0.90;69.36
31183;BME280;17813;0.000;0.000;2023-04-07T00:07:26;99594.28;;;0.90;69.93
31183;BME280;17813;0.000;0.000;2023-04-07T00:09:53;99594.31;;;0.88;70.61
31183;BME280;17813;0.000;0.000;2023-04-07T00:12:20;99583.84;;;0.90;69.74
31183;BME280;17813;0.000;0.000;2023-04-07T00:14:48;99590.81;;;0.89;70.20
31183;BME280;17813;0.000;0.000;2023-04-07T00:17:15;99589.09;;;0.88;69.99
31183;BME280;17813;0.000;0.000;2023-04-07T00:19:42;99585.69;;;0.85;70.24
31183;BME280;17813;0.000;0.000;2023-04-07T00:22:10;99580.63;;;0.77;70.84
31183;BME280;17813;0.000;0.000;2023-04-07T00:24:37;99577.22;;;0.74;70.78
31183;BME280;17813;0.000;0.000;2023-04-07T00:27:04;99589.44;;;0.72;71.24
31183;BME280;17813;0.000;0.000;2023-04-07T00:29:31;99581.69;;;0.69;71.28
31183;BME280;17813;0.000;0.000;2023-04-07T00:31:58;99583.50;;;0.65;71.52
31183;BME280;17813;0.000;0.000;2023-04-07T00:34:26;99575.69;;;0.63;71.53
31183;BME280;17813;0.000;0.000;2023-04-07T00:36:53;99574.91;;;0.60;71.31
31183;BME280;17813;0.000;0.000;2023-04-07T00:39:20;99565.38;;;0.57;71.24
31183;BME280;17813;0.000;0.000;2023-04-07T00:41:47;99574.09;;;0.56;71.68
31183;BME280;17813;0.000;0.000;2023-04-07T00:44:14;99575.91;;;0.53;71.12
31183;BME280;17813;0.000;0.000;2023-04-07T00:46:41;99576.75;;;0.53;71.24
31183;BME280;17813;0.000;0.000;2023-04-07T00:49:08;99575.03;;;0.52;71.51
31183;BME280;17813;0.000;0.000;2023-04-07T00:51:35;99560.34;;;0.48;72.07
31183;BME280;17813;0.000;0.000;2023-04-07T00:54:02;99565.59;;;0.47;71.68
31183;BME280;17813;0.000;0.000;2023-04-07T00:56:29;99561.28;;;0.44;71.85
31183;BME280;17813;0.000;0.000;2023-04-07T00:58:57;99569.16;;;0.43;71.80
31183;BME280;17813;0.000;0.000;2023-04-07T01:01:26;99562.25;;;0.40;72.01
31183;BME280;17813;0.000;0.000;2023-04-07T01:06:48;99558.13;;;0.28;72.64
31183;BME280;17813;0.000;0.000;2023-04-07T01:09:20;99561.69;;;0.23;73.38
31183;BME280;17813;0.000;0.000;2023-04-07T01:14:40;99553.13;;;0.16;72.35
31183;BME280;17813;0.000;0.000;2023-04-07T01:17:12;99550.56;;;0.15;72.59
31183;BME280;17813;0.000;0.000;2023-04-07T01:22:14;99554.03;;;0.14;73.54
31183;BME280;17813;0.000;0.000;2023-04-07T01:25:05;99551.50;;;0.11;73.20
31183;BME280;17813;0.000;0.000;2023-04-07T01:30:24;99549.66;;;0.16;72.53
31183;BME280;17813;0.000;0.000;2023-04-07T01:32:53;99547.91;;;0.16;72.37
31183;BME280;17813;0.000;0.000;2023-04-07T01:35:22;99545.28;;;0.18;72.22
31183;BME280;17813;0.000;0.000;2023-04-07T01:37:52;99544.50;;;0.13;72.76
31183;BME280;17813;0.000;0.000;2023-04-07T01:40:21;99540.25;;;0.07;73.45
31183;BME280;17813;0.000;0.000;2023-04-07T01:42:49;99542.97;;;0.01;73.83
31183;BME280;17813;0.000;0.000;2023-04-07T01:45:19;99540.47;;;-0.07;74.14
31183;BME280;17813;0.000;0.000;2023-04-07T01:47:46;99538.88;;;-0.14;74.21
31183;BME280;17813;0.000;0.000;2023-04-07T01:50:15;77500.88;;;-142.58;74.21
31183;BME280;17813;0.000;0.000;2023-04-07T01:52:42;77527.19;;;-142.58;75.07
31183;BME280;17813;0.000;0.000;2023-04-07T01:55:11;77529.22;;;-142.58;75.21
31183;BME280;17813;0.000;0.000;2023-04-07T01:57:37;77529.34;;;-142.58;74.33
31183;BME280;17813;0.000;0.000;2023-04-07T02:00:06;77529.34;;;-142.58;73.68
31183;BME280;17813;0.000;0.000;2023-04-07T02:02:42;77521.22;;;-142.58;74.16
31183;BME280;17813;0.000;0.000;2023-04-07T02:05:13;77527.19;;;-142.58;74.31
31183;BME280;17813;0.000;0.000;2023-04-07T02:08:02;77529.22;;;-142.58;74.24
31183;BME280;17813;0.000;0.000;2023-04-07T02:10:32;77521.09;;;-142.58;75.18
31183;BME280;17813;0.000;0.000;2023-04-07T02:13:03;77519.06;;;-142.58;73.93
31183;BME280;17813;0.000;0.000;2023-04-07T02:15:31;77519.06;;;-142.58;74.35
31183;BME280;17813;0.000;0.000;2023-04-07T02:18:00;77508.88;;;-142.58;74.00
31183;BME280;17813;0.000;0.000;2023-04-07T02:20:28;37430.63;;;-142.58;73.61
31183;BME280;17813;0.000;0.000;2023-04-07T02:22:56;77508.88;;;-142.58;73.62
31183;BME280;17813;0.000;0.000;2023-04-07T02:25:28;77488.66;;;-142.58;73.04
31183;BME280;17813;0.000;0.000;2023-04-07T02:27:57;77492.59;;;-142.58;72.60
31183;BME280;17813;0.000;0.000;2023-04-07T02:30:24;77492.59;;;-142.58;73.02
31183;BME280;17813;0.000;0.000;2023-04-07T02:32:52;77492.59;;;-142.58;73.26
31183;BME280;17813;0.000;0.000;2023-04-07T02:35:19;77492.59;;;-142.58;73.15
31183;BME280;17813;0.000;0.000;2023-04-07T02:37:47;77492.59;;;-142.58;72.14
31183;BME280;17813;0.000;0.000;2023-04-07T02:40:14;77482.41;;;-142.58;73.09
31183;BME280;17813;0.000;0.000;2023-04-07T02:42:42;77488.66;;;-142.58;72.62
31183;BME280;17813;0.000;0.000;2023-04-07T02:45:09;77494.63;;;-142.58;72.97
31183;BME280;17813;0.000;0.000;2023-04-07T02:47:37;77488.66;;;-142.58;73.11
31183;BME280;17813;0.000;0.000;2023-04-07T02:50:04;77488.66;;;-142.58;73.22
31183;BME280;17813;0.000;0.000;2023-04-07T02:52:31;77486.50;;;-142.58;72.80
31183;BME280;17813;0.000;0.000;2023-04-07T02:54:58;77494.63;;;-142.58;73.34
31183;BME280;17813;0.000;0.000;2023-04-07T02:57:26;77496.78;;;-142.58;73.06
31183;BME280;17813;0.000;0.000;2023-04-07T02:59:53;77517.00;;;-142.58;74.31
31183;BME280;17813;0.000;0.000;2023-04-07T03:02:23;77541.44;;;-142.58;74.50
31183;BME280;17813;0.000;0.000;2023-04-07T03:04:56;77543.47;;;-142.58;75.59
31183;BME280;17813;0.000;0.000;2023-04-07T03:07:22;77557.84;;;-142.58;75.36
31183;BME280;17813;0.000;0.000;2023-04-07T03:09:50;77561.91;;;-142.58;75.54
31183;BME280;17813;0.000;0.000;2023-04-07T03:12:16;77568.03;;;-142.58;76.05
31183;BME280;17813;0.000;0.000;2023-04-07T03:14:43;77559.88;;;-142.58;76.23
31183;BME280;17813;0.000;0.000;2023-04-07T03:17:10;77557.72;;;-142.58;75.67
31183;BME280;17813;0.000;0.000;2023-04-07T03:19:37;77551.75;;;-142.58;75.90
31183;BME280;17813;0.000;0.000;2023-04-07T03:22:04;77568.03;;;-142.58;75.87
31183;BME280;17813;0.000;0.000;2023-04-07T03:24:31;77578.06;;;-142.58;76.17
31183;BME280;17813;0.000;0.000;2023-04-07T03:26:58;77584.16;;;-142.58;76.90
31183;BME280;17813;0.000;0.000;2023-04-07T03:29:25;77584.16;;;-142.58;77.22
31183;BME280;17813;0.000;0.000;2023-04-07T03:31:52;77598.41;;;-142.58;77.29
31183;BME280;17813;0.000;0.000;2023-04-07T03:34:19;77596.38;;;-142.58;77.73
31183;BME280;17813;0.000;0.000;2023-04-07T03:36:46;77592.31;;;-142.58;51.24
31183;BME280;17813;0.000;0.000;2023-04-07T03:39:13;77594.34;;;-142.58;76.29
31183;BME280;17813;0.000;0.000;2023-04-07T03:41:40;77598.41;;;-142.58;77.32
31183;BME280;17813;0.000;0.000;2023-04-07T03:44:07;77592.31;;;-142.58;76.05
31183;BME280;17813;0.000;0.000;2023-04-07T03:46:34;77586.22;;;-142.58;75.59
31183;BME280;17813;0.000;0.000;2023-04-07T03:49:01;77580.09;;;-142.58;75.38
31183;BME280;17813;0.000;0.000;2023-04-07T03:51:27;77570.06;;;-142.58;75.82
31183;BME280;17813;0.000;0.000;2023-04-07T03:53:54;77563.94;;;-142.58;76.12
31183;BME280;17813;0.000;0.000;2023-04-07T03:56:21;77574.00;;;-142.58;75.30
31183;BME280;17813;0.000;0.000;2023-04-07T03:58:48;77565.97;;;-142.58;75.36
31183;BME280;17813;0.000;0.000;2023-04-07T04:01:16;77582.13;;;-142.58;75.89
31183;BME280;17813;0.000;0.000;2023-04-07T04:03:42;77590.28;;;-142.58;75.59
31183;BME280;17813;0.000;0.000;2023-04-07T04:06:10;77594.34;;;-142.58;76.97
31183;BME280;17813;0.000;0.000;2023-04-07T04:08:37;77600.44;;;-142.58;76.12
31183;BME280;17813;0.000;0.000;2023-04-07T04:11:04;77604.53;;;-142.58;77.13
31183;BME280;17813;0.000;0.000;2023-04-07T04:13:31;77616.72;;;-142.58;76.64
31183;BME280;17813;0.000;0.000;2023-04-07T04:15:58;77612.66;;;-142.58;77.30
31183;BME280;17813;0.000;0.000;2023-04-07T04:18:25;77633.00;;;-142.58;76.79
31183;BME280;17813;0.000;0.000;2023-04-07T04:20:52;77635.03;;;-142.58;77.31
31183;BME280;17813;0.000;0.000;2023-04-07T04:23:20;77630.97;;;-142.58;77.61
31183;BME280;17813;0.000;0.000;2023-04-07T04:25:47;77633.00;;;-142.58;77.45
31183;BME280;17813;0.000;0.000;2023-04-07T04:28:14;77635.03;;;-142.58;77.71
31183;BME280;17813;0.000;0.000;2023-04-07T04:30:42;77628.94;;;-142.58;77.24
31183;BME280;17813;0.000;0.000;2023-04-07T04:33:09;77626.91;;;-142.58;76.75
31183;BME280;17813;0.000;0.000;2023-04-07T04:35:36;77622.84;;;-142.58;76.80
31183;BME280;17813;0.000;0.000;2023-04-07T04:38:03;77608.59;;;-142.58;76.13
31183;BME280;17813;0.000;0.000;2023-04-07T04:40:30;77594.34;;;-142.58;77.01
31183;BME280;17813;0.000;0.000;2023-04-07T04:42:57;77596.38;;;-142.58;76.24
31183;BME280;17813;0.000;0.000;2023-04-07T04:45:27;77588.25;;;-142.58;75.64
31183;BME280;17813;0.000;0.000;2023-04-07T04:47:56;77576.03;;;-142.58;76.45
31183;BME280;17813;0.000;0.000;2023-04-07T04:50:23;77051.16;;;-142.58;58.34
31183;BME280;17813;0.000;0.000;2023-04-07T04:52:51;77580.09;;;-142.58;75.62
31183;BME280;17813;0.000;0.000;2023-04-07T04:55:18;77533.41;;;-142.58;75.23
31183;BME280;17813;0.000;0.000;2023-04-07T04:57:45;77525.16;;;-142.58;75.51
31183;BME280;17813;0.000;0.000;2023-04-07T05:00:14;77510.91;;;-142.58;74.89
31183;BME280;17813;0.000;0.000;2023-04-07T05:02:41;77500.88;;;-142.58;74.99
31183;BME280;17813;0.000;0.000;2023-04-07T05:05:08;77488.53;;;-142.58;74.41
31183;BME280;17813;0.000;0.000;2023-04-07T05:07:35;77472.25;;;-142.58;74.90
31183;BME280;17813;0.000;0.000;2023-04-07T05:10:02;77451.91;;;-142.58;74.30
31183;BME280;17813;0.000;0.000;2023-04-07T05:12:30;77435.75;;;-142.58;74.00
31183;BME280;17813;0.000;0.000;2023-04-07T05:14:57;77435.75;;;-142.58;74.26
31183;BME280;17813;0.000;0.000;2023-04-07T05:17:23;77421.38;;;-142.58;74.27
31183;BME280;17813;0.000;0.000;2023-04-07T05:19:59;77417.31;;;-142.58;74.28
31183;BME280;17813;0.000;0.000;2023-04-07T05:22:26;77403.06;;;-142.58;74.01
31183;BME280;17813;0.000;0.000;2023-04-07T05:24:53;77384.75;;;-142.58;73.79
31183;BME280;17813;0.000;0.000;2023-04-07T05:27:20;77368.47;;;-142.58;72.68
31183;BME280;17813;0.000;0.000;2023-04-07T05:29:47;77352.19;;;-142.58;73.58
31183;BME280;17813;0.000;0.000;2023-04-07T05:32:14;77339.97;;;-142.58;73.10
31183;BME280;17813;0.000;0.000;2023-04-07T05:34:41;77315.56;;;-142.58;72.90
31183;BME280;17813;0.000;0.000;2023-04-07T05:37:08;77299.28;;;-142.58;72.71
31183;BME280;17813;0.000;0.000;2023-04-07T05:39:35;77287.06;;;-142.58;73.05
31183;BME280;17813;0.000;0.000;2023-04-07T05:42:02;77280.97;;;-142.58;71.91
31183;BME280;17813;0.000;0.000;2023-04-07T05:44:32;99494.84;;;-142.58;72.51
31183;BME280;17813;0.000;0.000;2023-04-07T05:46:59;77254.50;;;-142.58;72.51
31183;BME280;17813;0.000;0.000;2023-04-07T05:49:25;77230.09;;;-142.58;72.34
31183;BME280;17813;0.000;0.000;2023-04-07T05:51:53;77217.88;;;-142.58;71.88
31183;BME280;17813;0.000;0.000;2023-04-07T05:54:20;77203.63;;;-142.58;70.88
31183;BME280;17813;0.000;0.000;2023-04-07T05:56:47;77189.41;;;-142.58;70.66
31183;BME280;17813;0.000;0.000;2023-04-07T05:59:14;77169.06;;;-142.58;70.03
31183;BME280;17813;0.000;0.000;2023-04-07T06:01:41;77144.63;;;-142.58;69.75
31183;BME280;17813;0.000;0.000;2023-04-07T06:04:08;77124.28;;;-142.58;69.80
31183;BME280;17813;0.000;0.000;2023-04-07T06:06:35;77081.56;;;-142.58;68.95
31183;BME280;17813;0.000;0.000;2023-04-07T06:09:03;99483.59;;;5.60;64.18
31183;BME280;17813;0.000;0.000;2023-04-07T06:11:30;99478.31;;;7.18;59.96
31183;BME280;17813;0.000;0.000;2023-04-07T06:13:57;99468.94;;;8.34;57.05
31183;BME280;17813;0.000;0.000;2023-04-07T06:16:24;99473.91;;;9.37;54.64
31183;BME280;17813;0.000;0.000;2023-04-07T06:18:51;99468.91;;;10.36;52.21
31183;BME280;17813;0.000;0.000;2023-04-07T06:21:18;99471.22;;;11.26;50.42
31183;BME280;17813;0.000;0.000;2023-04-07T06:23:45;99468.75;;;12.16;47.94
31183;BME280;17813;0.000;0.000;2023-04-07T06:26:12;99462.97;;;12.99;45.91
31183;BME280;17813;0.000;0.000;2023-04-07T06:28:39;99464.78;;;13.71;44.54
31183;BME280;17813;0.000;0.000;2023-04-07T06:31:07;99451.84;;;14.35;43.28
31183;BME280;17813;0.000;0.000;2023-04-07T06:33:34;99454.94;;;14.98;42.14
31183;BME280;17813;0.000;0.000;2023-04-07T06:36:02;99459.81;;;15.58;41.55
31183;BME280;17813;0.000;0.000;2023-04-07T06:38:29;99456.59;;;16.07;40.01
31183;BME280;17813;0.000;0.000;2023-04-07T06:40:56;99450.56;;;16.57;39.05
31183;BME280;17813;0.000;0.000;2023-04-07T06:43:24;99447.47;;;16.82;37.17
31183;BME280;17813;0.000;0.000;2023-04-07T06:45:51;99444.81;;;17.42;37.61
31183;BME280;17813;0.000;0.000;2023-04-07T06:48:19;99449.09;;;18.02;36.31
31183;BME280;17813;0.000;0.000;2023-04-07T06:50:48;99442.59;;;18.24;35.28
31183;BME280;17813;0.000;0.000;2023-04-07T06:53:18;99444.41;;;18.33;34.19
31183;BME280;17813;0.000;0.000;2023-04-07T06:55:48;99445.28;;;17.85;34.97
31183;BME280;17813;0.000;0.000;2023-04-07T06:58:17;99443.31;;;17.78;35.30
31183;BME280;17813;0.000;0.000;2023-04-07T07:00:45;99440.19;;;18.21;34.90
31183;BME280;17813;0.000;0.000;2023-04-07T07:03:13;99436.88;;;18.46;34.30
31183;BME280;17813;0.000;0.000;2023-04-07T07:05:42;99442.03;;;18.11;34.23
31183;BME280;17813;0.000;0.000;2023-04-07T07:08:10;99447.19;;;17.35;35.15
31183;BME280;17813;0.000;0.000;2023-04-07T07:10:38;99445.47;;;16.54;35.78
31183;BME280;17813;0.000;0.000;2023-04-07T07:13:08;99450.84;;;15.91;36.31
31183;BME280;17813;0.000;0.000;2023-04-07T07:15:36;99456.72;;;15.31;37.24
31183;BME280;17813;0.000;0.000;2023-04-07T07:18:04;99453.00;;;14.89;37.87
31183;BME280;17813;0.000;0.000;2023-04-07T07:20:32;99454.09;;;14.53;38.21
31183;BME280;17813;0.000;0.000;2023-04-07T07:23:00;99460.56;;;14.15;39.19
31183;BME280;17813;0.000;0.000;2023-04-07T07:25:29;99457.50;;;13.73;38.86
31183;BME280;17813;0.000;0.000;2023-04-07T07:27:57;99465.44;;;13.62;39.07
31183;BME280;17813;0.000;0.000;2023-04-07T07:30:25;99466.28;;;13.87;38.37
31183;BME280;17813;0.000;0.000;2023-04-07T07:32:54;99467.91;;;14.00;38.13
31183;BME280;17813;0.000;0.000;2023-04-07T07:35:24;99467.44;;;13.71;37.86
31183;BME280;17813;0.000;0.000;2023-04-07T07:37:52;99463.47;;;13.53;37.86
31183;BME280;17813;0.000;0.000;2023-04-07T07:40:19;99468.41;;;13.10;37.49
31183;BME280;17813;0.000;0.000;2023-04-07T07:42:48;99476.41;;;12.72;37.84
31183;BME280;17813;0.000;0.000;2023-04-07T07:45:16;99485.16;;;12.23;38.59
31183;BME280;17813;0.000;0.000;2023-04-07T07:47:46;99476.50;;;12.07;38.84
31183;BME280;17813;0.000;0.000;2023-04-07T07:50:16;99490.59;;;11.82;40.24
31183;BME280;17813;0.000;0.000;2023-04-07T07:52:44;99482.38;;;12.12;40.21
31183;BME280;17813;0.000;0.000;2023-04-07T07:55:12;99476.16;;;13.13;39.00
31183;BME280;17813;0.000;0.000;2023-04-07T07:57:41;99472.03;;;13.45;37.86
31183;BME280;17813;0.000;0.000;2023-04-07T08:00:08;99471.69;;;14.77;38.34
31183;BME280;17813;0.000;0.000;2023-04-07T08:02:37;99467.16;;;15.88;36.45
31183;BME280;17813;0.000;0.000;2023-04-07T08:05:07;99458.25;;;17.01;35.10
31183;BME280;17813;0.000;0.000;2023-04-07T08:07:34;99465.31;;;17.12;34.12
31183;BME280;17813;0.000;0.000;2023-04-07T08:10:01;99460.69;;;16.53;33.57
31183;BME280;17813;0.000;0.000;2023-04-07T08:12:28;99469.97;;;16.49;32.92
31183;BME280;17813;0.000;0.000;2023-04-07T08:14:55;99464.16;;;16.95;33.07
31183;BME280;17813;0.000;0.000;2023-04-07T08:17:21;99459.94;;;17.62;32.27
31183;BME280;17813;0.000;0.000;2023-04-07T08:19:49;99451.91;;;18.29;32.23
31183;BME280;17813;0.000;0.000;2023-04-07T08:22:16;99454.31;;;18.89;30.42
31183;BME280;17813;0.000;0.000;2023-04-07T08:24:48;99457.47;;;18.75;30.25
31183;BME280;17813;0.000;0.000;2023-04-07T08:27:22;99459.88;;;19.96;29.46
31183;BME280;17813;0.000;0.000;2023-04-07T08:30:01;99456.69;;;20.88;28.81
31183;BME280;17813;0.000;0.000;2023-04-07T08:32:41;99455.97;;;21.11;26.44
31183;BME280;17813;0.000;0.000;2023-04-07T08:35:09;99450.22;;;21.57;27.41
31183;BME280;17813;0.000;0.000;2023-04-07T08:37:38;99464.28;;;21.93;27.03
31183;BME280;17813;0.000;0.000;2023-04-07T08:40:07;99457.03;;;21.85;25.91
31183;BME280;17813;0.000;0.000;2023-04-07T08:42:34;99453.19;;;22.28;25.93
31183;BME280;17813;0.000;0.000;2023-04-07T08:45:07;99452.69;;;23.04;26.23
31183;BME280;17813;0.000;0.000;2023-04-07T08:47:36;99450.31;;;23.49;25.64
31183;BME280;17813;0.000;0.000;2023-04-07T08:50:09;99449.47;;;24.02;23.49
31183;BME280;17813;0.000;0.000;2023-04-07T08:52:55;99446.59;;;24.26;23.98
31183;BME280;17813;0.000;0.000;2023-04-07T08:55:22;99447.78;;;24.76;23.27
31183;BME280;17813;0.000;0.000;2023-04-07T08:57:49;99445.34;;;24.81;23.37
31183;BME280;17813;0.000;0.000;2023-04-07T09:00:18;99447.19;;;25.40;24.03
31183;BME280;17813;0.000;0.000;2023-04-07T09:02:45;99443.50;;;25.62;22.48
31183;BME280;17813;0.000;0.000;2023-04-07T09:05:14;99447.78;;;25.20;22.88
31183;BME280;17813;0.000;0.000;2023-04-07T09:07:42;99449.81;;;24.22;23.46
31183;BME280;17813;0.000;0.000;2023-04-07T09:10:10;99441.00;;;24.28;23.59
31183;BME280;17813;0.000;0.000;2023-04-07T09:12:37;99435.63;;;25.16;23.44
31183;BME280;17813;0.000;0.000;2023-04-07T09:15:06;99429.13;;;25.47;22.61
31183;BME280;17813;0.000;0.000;2023-04-07T09:17:35;99432.47;;;25.85;22.67
31183;BME280;17813;0.000;0.000;2023-04-07T09:20:03;99426.94;;;26.14;21.93
31183;BME280;17813;0.000;0.000;2023-04-07T09:22:41;99425.88;;;26.65;22.99
31183;BME280;17813;0.000;0.000;2023-04-07T09:28:02;99427.50;;;27.28;19.82
31183;BME280;17813;0.000;0.000;2023-04-07T09:30:33;99427.19;;;25.77;19.18
31183;BME280;17813;0.000;0.000;2023-04-07T09:33:01;99431.03;;;25.31;18.82
31183;BME280;17813;0.000;0.000;2023-04-07T09:35:27;99419.06;;;24.96;19.87
31183;BME280;17813;0.000;0.000;2023-04-07T09:38:04;99428.88;;;24.16;20.45
31183;BME280;17813;0.000;0.000;2023-04-07T09:40:31;99424.88;;;24.79;21.26
31183;BME280;17813;0.000;0.000;2023-04-07T09:42:59;99418.13;;;25.55;20.84
31183;BME280;17813;0.000;0.000;2023-04-07T09:45:27;99419.03;;;25.98;18.12
31183;BME280;17813;0.000;0.000;2023-04-07T09:47:55;99421.97;;;25.60;18.88
31183;BME280;17813;0.000;0.000;2023-04-07T09:50:38;99423.56;;;24.60;18.93
31183;BME280;17813;0.000;0.000;2023-04-07T09:53:05;99418.13;;;24.60;19.98
31183;BME280;17813;0.000;0.000;2023-04-07T09:55:32;99414.38;;;25.20;20.36
31183;BME280;17813;0.000;0.000;2023-04-07T09:58:01;99421.94;;;25.75;18.78
31183;BME280;17813;0.000;0.000;2023-04-07T10:00:30;99418.41;;;25.60;18.23
31183;BME280;17813;0.000;0.000;2023-04-07T10:03:00;99419.59;;;25.93;18.44
31183;BME280;17813;0.000;0.000;2023-04-07T10:05:27;99414.53;;;26.05;18.34
31183;BME280;17813;0.000;0.000;2023-04-07T10:07:55;99423.38;;;24.61;18.44
31183;BME280;17813;0.000;0.000;2023-04-07T10:10:23;99427.16;;;23.54;19.43
31183;BME280;17813;0.000;0.000;2023-04-07T10:12:52;99430.13;;;22.73;18.84
31183;BME280;17813;0.000;0.000;2023-04-07T10:15:23;99434.97;;;22.06;21.01
31183;BME280;17813;0.000;0.000;2023-04-07T10:17:50;99423.50;;;22.92;20.06
31183;BME280;17813;0.000;0.000;2023-04-07T10:20:19;99426.56;;;23.67;18.61
31183;BME280;17813;0.000;0.000;2023-04-07T10:22:51;99418.72;;;23.02;18.47
31183;BME280;17813;0.000;0.000;2023-04-07T10:25:21;99431.19;;;22.56;19.22
31183;BME280;17813;0.000;0.000;2023-04-07T10:27:59;99428.44;;;21.42;19.23
31183;BME280;17813;0.000;0.000;2023-04-07T10:30:30;99422.91;;;21.52;19.92
31183;BME280;17813;0.000;0.000;2023-04-07T10:32:58;99422.63;;;21.95;21.00
31183;BME280;17813;0.000;0.000;2023-04-07T10:35:26;99414.00;;;22.32;20.88
31183;BME280;17813;0.000;0.000;2023-04-07T10:40:34;99416.66;;;22.57;20.61
31183;BME280;17813;0.000;0.000;2023-04-07T10:43:03;99412.53;;;22.77;20.98
31183;BME280;17813;0.000;0.000;2023-04-07T10:48:13;99414.28;;;23.56;20.08
31183;BME280;17813;0.000;0.000;2023-04-07T10:50:40;99425.94;;;23.18;19.27
31183;BME280;17813;0.000;0.000;2023-04-07T10:53:10;99417.69;;;23.11;20.52
31183;BME280;17813;0.000;0.000;2023-04-07T10:55:38;99421.63;;;23.31;20.57
31183;BME280;17813;0.000;0.000;2023-04-07T10:58:30;99409.38;;;23.52;20.68
31183;BME280;17813;0.000;0.000;2023-04-07T11:03:55;99414.09;;;23.19;20.12
31183;BME280;17813;0.000;0.000;2023-04-07T11:06:23;99416.69;;;22.49;21.76
31183;BME280;17813;0.000;0.000;2023-04-07T11:08:53;99414.88;;;22.08;21.14
31183;BME280;17813;0.000;0.000;2023-04-07T11:11:36;99418.53;;;21.50;23.49
31183;BME280;17813;0.000;0.000;2023-04-07T11:14:05;99415.63;;;20.94;23.14
31183;BME280;17813;0.000;0.000;2023-04-07T11:16:41;99415.06;;;20.82;24.55
31183;BME280;17813;0.000;0.000;2023-04-07T11:19:09;99409.19;;;20.86;23.34
31183;BME280;17813;0.000;0.000;2023-04-07T11:21:36;99419.03;;;20.44;23.81
31183;BME280;17813;0.000;0.000;2023-04-07T11:24:03;99420.84;;;20.17;24.44
31183;BME280;17813;0.000;0.000;2023-04-07T11:26:38;99428.44;;;19.78;25.31
31183;BME280;17813;0.000;0.000;2023-04-07T11:29:06;99427.69;;;19.41;28.06
31183;BME280;17813;0.000;0.000;2023-04-07T11:31:34;99426.03;;;19.57;26.28
31183;BME280;17813;0.000;0.000;2023-04-07T11:34:04;99417.81;;;19.14;26.21
31183;BME280;17813;0.000;0.000;2023-04-07T11:36:31;99425.97;;;18.94;25.92
31183;BME280;17813;0.000;0.000;2023-04-07T11:38:59;99419.75;;;18.57;25.76
31183;BME280;17813;0.000;0.000;2023-04-07T11:41:31;99424.88;;;18.50;27.26
31183;BME280;17813;0.000;0.000;2023-04-07T11:44:12;99418.16;;;18.27;25.59
31183;BME280;17813;0.000;0.000;2023-04-07T11:47:06;99422.50;;;18.18;27.19
31183;BME280;17813;0.000;0.000;2023-04-07T11:49:33;99420.69;;;18.28;27.00
31183;BME280;17813;0.000;0.000;2023-04-07T11:52:01;99422.50;;;18.18;26.47
31183;BME280;17813;0.000;0.000;2023-04-07T11:54:41;99418.84;;;18.10;26.98
31183;BME280;17813;0.000;0.000;2023-04-07T11:57:08;99419.25;;;18.34;27.08
31183;BME280;17813;0.000;0.000;2023-04-07T11:59:38;99411.66;;;18.10;26.20
31183;BME280;17813;0.000;0.000;2023-04-07T12:02:06;99416.16;;;17.52;26.94
31183;BME280;17813;0.000;0.000;2023-04-07T12:04:33;99420.13;;;17.48;26.49
31183;BME280;17813;0.000;0.000;2023-04-07T12:07:09;99421.28;;;17.74;28.70
31183;BME280;17813;0.000;0.000;2023-04-07T12:09:37;99424.50;;;18.07;28.43
31183;BME280;17813;0.000;0.000;2023-04-07T12:12:05;99410.09;;;18.08;26.38
31183;BME280;17813;0.000;0.000;2023-04-07T12:14:34;99422.97;;;17.75;26.80
31183;BME280;17813;0.000;0.000;2023-04-07T12:17:03;99425.63;;;17.46;27.07
31183;BME280;17813;0.000;0.000;2023-04-07T12:19:31;99418.16;;;17.59;26.53
31183;BME280;17813;0.000;0.000;2023-04-07T12:22:01;99418.28;;;17.48;26.64
31183;BME280;17813;0.000;0.000;2023-04-07T12:24:28;99420.66;;;17.32;26.31
31183;BME280;17813;0.000;0.000;2023-04-07T12:26:56;99418.16;;;17.59;27.72
31183;BME280;17813;0.000;0.000;2023-04-07T12:29:23;99412.41;;;17.74;26.99
31183;BME280;17813;0.000;0.000;2023-04-07T12:31:51;99419.84;;;17.51;25.46
31183;BME280;17813;0.000;0.000;2023-04-07T12:34:20;99417.81;;;17.14;26.68
31183;BME280;17813;0.000;0.000;2023-04-07T12:36:50;99419.88;;;16.91;26.79
31183;BME280;17813;0.000;0.000;2023-04-07T12:39:17;99423.16;;;16.44;27.38
31183;BME280;17813;0.000;0.000;2023-04-07T12:41:45;99422.50;;;16.51;28.05
31183;BME280;17813;0.000;0.000;2023-04-07T12:44:13;99418.63;;;16.65;27.80
31183;BME280;17813;0.000;0.000;2023-04-07T12:46:41;99413.72;;;16.70;27.81
31183;BME280;17813;0.000;0.000;2023-04-07T12:49:11;99417.03;;;16.62;28.39
31183;BME280;17813;0.000;0.000;2023-04-07T12:51:40;99412.78;;;16.81;27.60
31183;BME280;17813;0.000;0.000;2023-04-07T12:54:12;99410.25;;;16.89;29.77
31183;BME280;17813;0.000;0.000;2023-04-07T12:56:40;99410.53;;;16.86;27.98
31183;BME280;17813;0.000;0.000;2023-04-07T12:59:07;99406.44;;;16.82;28.56
31183;BME280;17813;0.000;0.000;2023-04-07T13:01:36;99409.75;;;17.04;28.36
31183;BME280;17813;0.000;0.000;2023-04-07T13:04:06;99405.84;;;17.38;29.00
31183;BME280;17813;0.000;0.000;2023-04-07T13:06:33;99409.00;;;17.81;27.83
31183;BME280;17813;0.000;0.000;2023-04-07T13:09:00;99405.59;;;17.89;26.50
31183;BME280;17813;0.000;0.000;2023-04-07T13:11:27;99400.66;;;17.84;28.48
31183;BME280;17813;0.000;0.000;2023-04-07T13:13:54;99409.81;;;18.01;26.46
31183;BME280;17813;0.000;0.000;2023-04-07T13:16:21;99405.84;;;18.15;26.95
31183;BME280;17813;0.000;0.000;2023-04-07T13:18:48;99402.47;;;18.13;25.92
31183;BME280;17813;0.000;0.000;2023-04-07T13:21:17;99407.16;;;18.01;26.15
31183;BME280;17813;0.000;0.000;2023-04-07T13:23:45;99396.69;;;18.08;26.74
31183;BME280;17813;0.000;0.000;2023-04-07T13:26:13;99409.94;;;18.28;27.29
31183;BME280;17813;0.000;0.000;2023-04-07T13:28:40;99391.75;;;17.64;26.88
31183;BME280;17813;0.000;0.000;2023-04-07T13:31:09;99404.59;;;17.32;27.19
31183;BME280;17813;0.000;0.000;2023-04-07T13:33:40;99409.75;;;17.04;27.69